Aeroporto :
LOGIN :

Iscrizione | Disclaimer

   EN    FR    IT 

 










Sommario :    VFR   VFR Marginale   IFR   IFR Intensivo   IFR Molto Intensivo
Visibilità : 
Base nubi : 
>= 8 km
>= 3000ft
5 / 8 km
1000 / 3000 ft
1500m / 5 km
500 / 1000 ft
800 / 1500m
200 / 500 ft
< 800m
< 200 ft
Simboli :   Temporali  Nebbia  Neve Forte  Precipitazioni Forti  Vento > 20 kt
SIGMETs :   Varie  Temporali  Ghiacco  Turbolenza  Onda orograficha  Ceneri Vulcaniche







- Altitudine del aeroporto : 37 ft
- Codice IATA : OLB


LIEO - Olbia Costa Smeralda

ULTIMO METAR :
  • 190520Z 23007KT CAVOK 09/06 Q1017

METARs OBSOLETI :
  • 190450Z 24003KT CAVOK 08/06 Q1016
  • 190420Z 26007KT CAVOK 08/05 Q1016
  • 190350Z 28005KT CAVOK 09/06 Q1016
  • 190320Z 24012KT CAVOK 09/06 Q1016
  • 190250Z 25012KT CAVOK 09/06 Q1016

TAF TAF LIEO
Valido dal 19 a 06 ore il 20 a 06 ore UTC


190500Z 1906/2006 27008KT 9999 FEW030
BECMG 1906/1908 03010KT
TEMPO 1910/1914 SHRA
Nessun NOTAM noto per questo aeroporto.



MetMap, La meteo Aeronautica in un colpo d'occhio ! - Copyright ORBIFLY Dicembre 2007 - Disclaimer

ORBIFLY MET'MAP TEAM :

Programmazione e sviluppo : Alexandra Zaïnal
Concezione e sviluppo : Baudouin d'Aumeries
Co-Programmazione e sviluppo : Marc-Olivier Méhu
Supporto tecnico e logistico : Manuel Goepfert
Aiuto per la traduzione : Arnaldo La Scala

Contatto : metmap@orbifly.com




FONTI E CREDITI :

   NOAA